EGMCLEIB

Guest
Details From EGMC - Southend
To LEIB - Ibiza
Flight Number -
Tags Generated
Created
Modified
Stats Distance 763 nm / 1,414 km
Max Altitude 0 ft / 0 m
Waypoints 5
Social Downloads 9
Likes 0
Share VATSIM

Download

Looking for another format? Having issues loading an existing format? Contact us
Advertisement - Login to hide

Notes

Generated

Route

EGMC SOMED BR410 IBA53 LEIB

ID Type Via Altitude Latitude Longitude Leg Dist Tot Dist Heading (true) Name
O EGMC APT - 0 ft / 0 m 51.56725˚ 0.68627˚ - 0 nm - -
SOMED FIX - 0 ft / 0 m 47.43583˚ 0.94194˚ 248 nm 248 nm 178° / 178° -
BR410 FIX - 0 ft / 0 m 43.37253˚ 1.21078˚ 244 nm 492 nm 177° / 177° -
IBA53 FIX - 0 ft / 0 m 39.11647˚ 1.32273˚ 255 nm 748 nm 179° / 179° -
O LEIB APT - 0 ft / 0 m 38.86694˚ 1.35887˚ 15 nm 763 nm 174° / 174° -

Altitude Profile

Advertisement - Login to hide

Weather


0- 5 10 15 20 25 30 35+ Temperature / ° C

Clouds and Precipitation
Forecast for 2017-12-11 00:00 UTC. Updated an hour ago

Ground ~20,000 ft ~40,000 ft Winds

EGMC

Details ICAO EGMC (SEN)
Name Southend
Region United Kingdom
Timezone Europe/London (UTC+0.0)
Stats Elevation 49 ft / 15 m (AMSL)
Location 51.571443° 0.695583°
Runways 1
Magnetic Variation 0.172° W

METAR

EGMC 102350Z VRB02KT 0200 R23/0275 R05/0275 FG OVC001 M00/M01 Q0981

Decode

TAF

Not found

Departure Runways

ID Width Length Bearing (true) Bearing (mag) Surface Threshold Offset Overrun Length
06 121 ft / 37 m 5,230 ft / 1,594 m 54.10° 54.27° Asphalt 558 ft / 170 m 0 ft / 0 m
24 121 ft / 37 m 5,230 ft / 1,594 m 234.11° 234.28° Asphalt 466 ft / 142 m 0 ft / 0 m

LEIB

Details ICAO LEIB (IBZ)
Name Ibiza
Region Spain
Timezone Europe/Madrid (UTC+1.0)
Stats Elevation 20 ft / 6 m (AMSL)
Location 38.872871° 1.373045°
Runways 1
Magnetic Variation 0.661° E

METAR

LEIB 102300Z 23015KT 9999 FEW020 17/11 Q1004 NOSIG

Decode

TAF

TAF LEIB 102000Z 1021/1121 23015KT 9999 FEW020 TX19/1112Z TN12/1107Z TEMPO 1021/1120 23018G30KT TEMPO 1104/1113 23032G48KT TEMPO 1111/1117 4000 RA

Decode

Destination Runways

ID Width Length Bearing (true) Bearing (mag) Surface Threshold Offset Overrun Length
06 148 ft / 45 m 9,153 ft / 2,790 m 61.85° 61.19° Asphalt 0 ft / 0 m 213 ft / 65 m
24 148 ft / 45 m 9,153 ft / 2,790 m 241.86° 241.20° Asphalt 0 ft / 0 m 197 ft / 60 m

Approach Navaids

Runway Type Ident Frequency Range Bearing (true) Bearing (mag) Slope Elevation
06 Localiser IBI 111.10 MHz 18 nm / 33 km 62.00° 61.34° - 20 ft / 6 m (AMSL)
06 Glidescope IBI 111.10 MHz 10 nm / 19 km 62.00° 61.34° 3.00° 20 ft / 6 m (AMSL)
06 DME IBI 111.10 MHz 18 nm / 33 km - - - 20 ft / 6 m (AMSL)
24 Localiser IBZ 109.50 MHz 18 nm / 33 km 241.81° 241.15° - 15 ft / 5 m (AMSL)
24 Glidescope IBZ 109.50 MHz 10 nm / 19 km 241.86° 241.19° 3.00° 69 ft / 21 m (AMSL)
24 DME IBZ 109.50 MHz 18 nm / 33 km - - - 69 ft / 21 m (AMSL)

Popular Alternatives